Time;durP1;ratioP1;P1;durP2;ratioP2;P2;SDS_P1;SDS_P2;PMS_P1;PMS_P2;Temp;Humidity;BMP_temperature;BMP_pressure;BME280_temperature;BME280_humidity;BME280_pressure;Samples;Min_cycle;Max_cycle;Signal;HPM_P1;HPM_P2
2023/05/10 00:00:24;;;;;;;6.47;3.95;;;;;;;14.89;51.92;99335.12;4270240;33;34142;-89
2023/05/10 00:03:07;;;;;;;6.43;3.72;;;;;;;14.18;53.89;99336.84;4269637;33;34085;-85
2023/05/10 00:05:58;;;;;;;8.68;4.45;;;;;;;14.36;53.60;99331.66;4279885;33;33446;-88
2023/05/10 00:08:38;;;;;;;7.30;4.43;;;;;;;13.92;54.81;99334.22;4259824;33;33382;-90
2023/05/10 00:11:23;;;;;;;8.80;4.47;;;;;;;13.37;56.73;99340.13;4282418;33;33242;-85
2023/05/10 00:13:58;;;;;;;8.23;5.03;;;;;;;13.53;56.36;99335.84;4239932;33;34436;-84
2023/05/10 00:16:51;;;;;;;9.38;5.10;;;;;;;13.84;55.48;99335.94;4241403;33;33996;-89
2023/05/10 00:19:38;;;;;;;7.53;4.22;;;;;;;14.14;54.68;99329.03;4241508;33;34185;-90
2023/05/10 00:22:25;;;;;;;7.65;4.60;;;;;;;14.34;54.06;99332.50;4240545;33;33553;-89
2023/05/10 00:25:28;;;;;;;9.73;4.80;;;;;;;14.16;54.72;99327.28;4251744;33;33610;-85
2023/05/10 00:28:21;;;;;;;11.32;5.47;;;;;;;14.30;53.97;99330.78;4238781;33;33679;-89
2023/05/10 00:31:06;;;;;;;7.30;4.83;;;;;;;13.76;55.65;99322.03;4249698;33;33186;-85
2023/05/10 00:34:04;;;;;;;8.02;4.70;;;;;;;13.88;55.29;99330.72;4237733;33;34096;-90
2023/05/10 00:37:11;;;;;;;10.05;4.85;;;;;;;14.33;54.03;99323.81;4227639;33;34772;-86
2023/05/10 00:39:57;;;;;;;7.40;5.30;;;;;;;14.06;54.96;99324.69;4237847;33;33493;-86
2023/05/10 00:42:41;;;;;;;6.75;4.82;;;;;;;14.00;54.83;99319.44;4238685;33;33178;-89
2023/05/10 00:45:28;;;;;;;7.75;4.75;;;;;;;13.43;56.74;99323.66;4260899;33;34328;-89
2023/05/10 00:48:25;;;;;;;14.48;4.97;;;;;;;13.60;56.27;99327.19;4242850;33;33589;-88
2023/05/10 00:51:31;;;;;;;8.98;5.10;;;;;;;13.51;56.52;99324.53;4253150;33;34174;-89
2023/05/10 00:54:40;;;;;;;9.02;5.45;;;;;;;13.23;57.51;99323.56;4264038;33;34009;-84
2023/05/10 00:57:55;;;;;;;8.13;5.78;;;;;;;13.29;57.23;99320.97;4256347;33;34275;-85
2023/05/10 01:00:48;;;;;;;9.13;5.37;;;;;;;13.21;57.48;99319.19;4254612;33;34227;-85
2023/05/10 01:03:48;;;;;;;8.40;5.82;;;;;;;13.37;57.07;99318.41;4278289;33;33681;-86
2023/05/10 01:06:50;;;;;;;9.57;6.07;;;;;;;12.91;58.96;99323.34;4266526;33;33443;-85
2023/05/10 01:09:43;;;;;;;9.63;6.37;;;;;;;13.12;58.46;99318.28;4255998;33;33950;-85
2023/05/10 01:12:47;;;;;;;10.50;5.85;;;;;;;12.79;59.29;99321.56;4246063;33;35006;-90
2023/05/10 01:15:41;;;;;;;9.32;5.75;;;;;;;13.50;57.39;99324.53;4267352;33;34629;-89
2023/05/10 01:18:30;;;;;;;8.75;5.15;;;;;;;13.70;56.69;99317.66;4267478;33;33669;-86
2023/05/10 01:21:33;;;;;;;7.77;4.87;;;;;;;13.75;56.31;99315.06;4256831;33;33870;-89
2023/05/10 01:24:39;;;;;;;8.88;4.97;;;;;;;13.78;56.07;99320.28;4267421;33;34134;-85
2023/05/10 01:28:02;;;;;;;7.95;4.93;;;;;;;13.87;55.69;99312.50;4267347;33;35506;-86
2023/05/10 01:30:49;;;;;;;7.78;4.95;;;;;;;13.70;56.10;99312.44;4251737;33;33394;-90
2023/05/10 01:33:45;;;;;;;9.48;4.70;;;;;;;13.87;55.43;99310.75;4248843;33;34109;-89
2023/05/10 01:36:38;;;;;;;8.80;5.45;;;;;;;13.73;55.72;99314.19;4264703;33;34177;-89
2023/05/10 01:39:39;;;;;;;7.93;5.10;;;;;;;13.68;55.74;99314.19;4244825;33;34268;-85
2023/05/10 01:42:35;;;;;;;8.95;5.03;;;;;;;13.79;55.73;99309.00;4256191;33;33612;-85
2023/05/10 01:46:13;;;;;;;9.57;5.07;;;;;;;13.65;55.89;99305.50;4259099;33;34198;-90
2023/05/10 01:49:36;;;;;;;8.70;5.57;;;;;;;13.67;55.84;99311.56;4245360;33;34375;-84
2023/05/10 01:52:22;;;;;;;8.93;6.18;;;;;;;13.71;55.57;99315.91;4250138;33;34346;-85
2023/05/10 01:55:05;;;;;;;7.43;5.62;;;;;;;13.60;55.91;99308.97;4227707;33;32448;-90
2023/05/10 01:57:51;;;;;;;8.02;5.85;;;;;;;13.21;57.29;99314.84;4259050;33;33388;-85
2023/05/10 02:00:48;;;;;;;9.98;6.62;;;;;;;13.37;56.72;99302.78;4252350;33;34242;-85
2023/05/10 02:03:34;;;;;;;;;;;;;;;13.28;56.85;99307.97;4283515;33;35106;-86
2023/05/10 02:06:23;;;;;;;10.50;5.85;;;;;;;13.52;56.10;99308.03;4270745;33;33250;-85
2023/05/10 02:09:54;;;;;;;8.30;5.57;;;;;;;13.33;56.74;99295.81;4264111;33;34003;-91
2023/05/10 02:13:11;;;;;;;9.13;5.65;;;;;;;13.30;57.04;99294.09;4269682;33;36040;-84
2023/05/10 02:16:01;;;;;;;8.23;6.25;;;;;;;13.46;56.68;99301.97;4270606;33;34265;-85
2023/05/10 02:18:50;;;;;;;10.50;6.28;;;;;;;13.35;57.09;99294.97;4279855;33;33261;-88
2023/05/10 02:21:51;;;;;;;8.10;5.53;;;;;;;13.25;57.42;99287.13;4274008;33;34271;-83
2023/05/10 02:24:49;;;;;;;9.95;5.75;;;;;;;13.38;57.40;99289.78;4270575;33;33922;-86
2023/05/10 02:27:56;;;;;;;10.68;6.30;;;;;;;13.33;57.72;99280.19;4268927;33;33869;-83
2023/05/10 02:30:56;;;;;;;7.75;5.80;;;;;;;13.23;58.28;99283.63;4267816;33;33743;-83
2023/05/10 02:33:42;;;;;;;8.68;5.97;;;;;;;13.28;58.54;99277.59;4270107;33;33453;-83
2023/05/10 02:36:32;;;;;;;7.78;5.18;;;;;;;13.32;58.32;99281.94;4277590;33;34023;-83
2023/05/10 02:39:28;;;;;;;9.80;6.10;;;;;;;13.44;58.15;99273.28;4260839;33;34697;-85
2023/05/10 02:42:17;;;;;;;7.68;5.68;;;;;;;13.55;57.80;99292.44;4283317;33;34419;-87
2023/05/10 02:45:30;;;;;;;11.12;5.28;;;;;;;13.66;57.82;99289.00;4271325;33;34450;-84
2023/05/10 02:48:27;;;;;;;11.07;5.78;;;;;;;13.75;57.06;99296.81;4265388;33;33312;-85
2023/05/10 02:51:47;;;;;;;8.80;5.87;;;;;;;13.39;58.27;99286.31;4281786;33;33538;-85
2023/05/10 02:54:44;;;;;;;6.95;4.47;;;;;;;13.75;57.46;99283.78;4256427;33;34411;-84
2023/05/10 02:57:57;;;;;;;8.77;5.12;;;;;;;13.77;57.37;99284.66;4266065;33;34348;-87
2023/05/10 03:00:41;;;;;;;6.90;4.62;;;;;;;13.71;57.43;99282.03;4270371;33;34163;-90
2023/05/10 03:03:39;;;;;;;8.45;4.82;;;;;;;13.68;57.26;99285.53;4260669;33;34050;-85
2023/05/10 03:06:24;;;;;;;6.57;4.62;;;;;;;13.70;56.97;99280.31;4278445;33;33202;-84
2023/05/10 03:09:22;;;;;;;7.40;4.95;;;;;;;13.72;56.79;99283.81;4269319;33;33745;-85
2023/05/10 03:12:22;;;;;;;7.82;4.72;;;;;;;13.80;56.68;99279.47;4271351;33;33658;-84
2023/05/10 03:15:29;;;;;;;9.10;5.53;;;;;;;13.92;56.06;99276.87;4270842;33;33950;-84
2023/05/10 03:19:04;;;;;;;9.05;6.03;;;;;;;13.68;56.35;99282.06;4270932;33;33422;-88
2023/05/10 03:22:00;;;;;;;7.12;5.28;;;;;;;13.34;57.17;99276.75;4287955;33;33849;-85
2023/05/10 03:25:21;;;;;;;8.38;6.35;;;;;;;13.37;56.94;99281.94;4271293;33;34398;-84
2023/05/10 03:28:14;;;;;;;10.65;5.82;;;;;;;13.24;56.82;99278.44;4271109;33;33454;-89
2023/05/10 03:31:07;;;;;;;9.43;5.00;;;;;;;13.20;56.99;99278.41;4278742;33;34582;-83
2023/05/10 03:34:11;;;;;;;8.60;6.00;;;;;;;13.11;57.42;99285.31;4257960;33;33499;-84
2023/05/10 03:37:03;;;;;;;7.05;5.32;;;;;;;13.00;57.93;99287.00;4260825;33;34336;-84
2023/05/10 03:40:19;;;;;;;10.75;6.05;;;;;;;13.24;57.09;99277.56;4266386;33;35132;-84
2023/05/10 03:46:52;;;;;;;6.28;4.90;;;;;;;13.18;57.06;99285.31;4281013;33;33606;-85
2023/05/10 03:50:10;;;;;;;8.13;5.70;;;;;;;13.40;56.39;99271.53;4284327;33;34202;-85
2023/05/10 03:53:01;;;;;;;9.43;5.60;;;;;;;13.37;56.71;99281.94;4258262;33;34186;-85
2023/05/10 03:56:01;;;;;;;7.62;4.80;;;;;;;13.14;57.27;99280.12;4269021;33;33692;-84
2023/05/10 03:58:47;;;;;;;7.15;4.90;;;;;;;13.16;57.09;99282.72;4290031;33;35042;-84
2023/05/10 04:01:23;;;;;;;7.60;4.97;;;;;;;13.33;56.55;99286.31;4278006;33;32785;-84
2023/05/10 04:04:29;;;;;;;8.70;5.68;;;;;;;13.15;57.02;99281.84;4264577;33;35596;-84
2023/05/10 04:07:33;;;;;;;10.48;5.57;;;;;;;13.17;57.17;99275.78;4268652;33;34493;-85
2023/05/10 04:10:23;;;;;;;10.93;5.90;;;;;;;13.12;56.96;99278.38;4277539;33;33932;-85
2023/05/10 04:13:50;;;;;;;10.05;6.00;;;;;;;13.26;56.61;99273.22;4265163;33;34452;-85
2023/05/10 04:16:30;;;;;;;8.13;6.07;;;;;;;13.30;56.83;99275.00;4256222;33;33745;-84
2023/05/10 04:19:22;;;;;;;9.32;5.53;;;;;;;13.30;56.89;99278.47;4266045;33;33337;-84
2023/05/10 04:22:15;;;;;;;8.18;5.43;;;;;;;13.50;56.00;99275.94;4267591;33;34229;-84
2023/05/10 04:25:14;;;;;;;7.50;5.60;;;;;;;14.04;54.94;99282.09;4255434;33;34317;-85
2023/05/10 04:28:07;;;;;;;10.45;6.22;;;;;;;14.38;53.94;99276.87;4255405;33;33504;-85
2023/05/10 04:31:33;;;;;;;8.65;5.18;;;;;;;14.64;52.87;99279.47;4258698;33;33515;-85
2023/05/10 04:34:24;;;;;;;10.55;5.75;;;;;;;15.25;50.78;99278.41;4254121;33;33510;-85
2023/05/10 04:37:24;;;;;;;8.52;5.28;;;;;;;15.61;50.44;99284.31;4269267;33;34313;-85
2023/05/10 04:40:18;;;;;;;7.60;4.90;;;;;;;15.72;50.35;99282.56;4275050;33;33194;-89
2023/05/10 04:43:00;;;;;;;7.82;4.70;;;;;;;15.37;50.46;99290.56;4276818;33;33623;-85
2023/05/10 04:46:19;;;;;;;8.60;5.43;;;;;;;15.74;49.77;99284.28;4279417;33;34697;-87
2023/05/10 04:49:14;;;;;;;6.97;4.95;;;;;;;15.26;50.96;99280.16;4257185;33;33852;-90
2023/05/10 04:52:06;;;;;;;9.30;5.10;;;;;;;15.88;49.60;99280.72;4266714;33;33775;-87
2023/05/10 04:54:48;;;;;;;7.20;4.47;;;;;;;15.96;49.30;99284.16;4267276;33;33655;-83
2023/05/10 04:57:34;;;;;;;8.23;5.53;;;;;;;16.20;48.88;99272.62;4282558;33;33909;-84
2023/05/10 05:00:14;;;;;;;10.20;5.65;;;;;;;16.02;49.10;99282.38;4269742;33;34741;-85
2023/05/10 05:03:08;;;;;;;8.95;5.12;;;;;;;14.95;51.51;99282.88;4257138;33;33632;-90
2023/05/10 05:06:24;;;;;;;;;;;;;;;15.65;50.25;99280.84;4269394;33;33674;-86
2023/05/10 05:09:11;;;;;;;9.32;5.10;;;;;;;15.60;50.11;99285.22;4283226;33;34784;-85
2023/05/10 05:12:13;;;;;;;9.45;4.97;;;;;;;16.27;48.57;99276.94;4281103;33;34011;-86
2023/05/10 05:15:05;;;;;;;8.93;5.22;;;;;;;15.55;50.15;99283.50;4264541;33;33782;-84
2023/05/10 05:17:51;;;;;;;8.43;5.78;;;;;;;15.47;50.50;99285.28;4271774;33;33598;-84
2023/05/10 05:20:48;;;;;;;8.63;5.07;;;;;;;15.55;50.43;99288.72;4272623;33;34424;-85
2023/05/10 05:23:39;;;;;;;9.07;5.20;;;;;;;16.19;49.09;99273.50;4270512;33;33952;-84
2023/05/10 05:26:42;;;;;;;7.37;5.33;;;;;;;15.92;49.72;99283.31;4261678;33;33197;-91
2023/05/10 05:29:22;;;;;;;8.75;5.62;;;;;;;15.33;51.30;99292.31;4279452;33;33804;-91
2023/05/10 05:32:11;;;;;;;9.00;5.37;;;;;;;15.82;50.16;99287.72;4281202;33;34119;-89
2023/05/10 05:34:55;;;;;;;9.52;4.62;;;;;;;14.54;53.40;99294.25;4260294;33;34239;-86
2023/05/10 05:37:45;;;;;;;8.68;5.30;;;;;;;15.57;51.52;99297.44;4271219;33;34409;-87
2023/05/10 05:40:32;;;;;;;9.18;5.10;;;;;;;15.45;51.22;99296.59;4271444;33;34906;-86
2023/05/10 05:43:16;;;;;;;9.60;5.15;;;;;;;15.46;51.36;99299.22;4281317;33;33685;-89
2023/05/10 05:45:51;;;;;;;10.48;4.95;;;;;;;15.97;49.84;99296.34;4269114;33;34387;-85
2023/05/10 05:48:28;;;;;;;9.68;4.90;;;;;;;16.25;49.44;99291.75;4257516;33;33408;-84
2023/05/10 05:51:00;;;;;;;8.93;4.10;;;;;;;16.31;49.52;99291.72;4257557;33;33042;-84
2023/05/10 05:53:44;;;;;;;7.22;4.62;;;;;;;16.65;48.74;99291.41;4271528;33;35188;-84
2023/05/10 05:56:17;;;;;;;5.62;3.58;;;;;;;16.45;48.38;99297.69;4256692;33;33754;-84
2023/05/10 05:59:03;;;;;;;8.77;4.90;;;;;;;16.39;49.08;99302.97;4280660;33;34086;-84
2023/05/10 06:01:45;;;;;;;7.72;3.90;;;;;;;16.11;49.04;99307.56;4268518;33;33784;-84
2023/05/10 06:04:19;;;;;;;6.40;3.85;;;;;;;15.83;49.12;99317.34;4269121;33;33999;-85
2023/05/10 06:07:21;;;;;;;9.65;5.28;;;;;;;15.60;50.13;99311.34;4259031;33;34672;-85
2023/05/10 06:10:34;;;;;;;7.15;4.93;;;;;;;15.57;51.14;99307.87;4272067;33;35056;-86
2023/05/10 06:13:11;;;;;;;7.53;5.25;;;;;;;15.83;50.18;99312.09;4270282;33;33403;-84
2023/05/10 06:16:13;;;;;;;13.27;5.70;;;;;;;15.57;50.22;99322.69;4269284;33;33719;-87
2023/05/10 06:19:42;;;;;;;11.32;4.45;;;;;;;15.86;50.60;99317.31;4271190;33;34636;-87
2023/05/10 06:22:28;;;;;;;8.85;5.10;;;;;;;15.88;50.45;99317.34;4270412;33;34909;-86
2023/05/10 06:25:04;;;;;;;8.88;4.97;;;;;;;16.23;49.65;99315.31;4260111;33;33107;-88
2023/05/10 06:27:45;;;;;;;8.13;4.35;;;;;;;15.77;49.89;99325.22;4259114;33;34101;-88
2023/05/10 06:30:28;;;;;;;6.05;3.92;;;;;;;16.19;48.76;99323.22;4258340;33;33932;-85
2023/05/10 06:33:01;;;;;;;8.25;4.90;;;;;;;15.70;49.46;99324.38;4258821;33;33958;-84
2023/05/10 06:35:57;;;;;;;8.02;4.78;;;;;;;16.08;48.95;99319.81;4260123;33;33826;-87
2023/05/10 06:38:46;;;;;;;;;;;;;;;;;;;;;
2023/05/10 06:44:49;;;;;;;8.45;4.78;;;;;;;16.27;47.76;99330.13;4280108;33;33823;-89
2023/05/10 06:47:37;;;;;;;8.68;4.95;;;;;;;16.14;48.09;99335.44;4281999;33;33307;-85
2023/05/10 06:50:30;;;;;;;8.40;5.40;;;;;;;16.09;48.96;99329.38;4258514;33;34239;-85
2023/05/10 06:53:56;;;;;;;7.60;5.03;;;;;;;15.82;48.79;99331.28;4267369;33;34600;-89
2023/05/10 06:57:10;;;;;;;;;;;;;;;16.25;48.13;99325.75;4265673;33;34080;-85
2023/05/10 07:00:00;;;;;;;8.95;4.70;;;;;;;17.02;47.92;99312.88;4282733;33;34293;-85
2023/05/10 07:02:40;;;;;;;8.32;4.65;;;;;;;16.92;46.89;99312.09;4282601;33;33852;-88
2023/05/10 07:05:16;;;;;;;7.80;5.18;;;;;;;17.16;46.22;99312.72;4272272;33;33545;-87
2023/05/10 07:08:00;;;;;;;7.62;4.78;;;;;;;16.68;46.97;99301.84;4262364;33;34055;-83
2023/05/10 07:10:49;;;;;;;8.50;4.78;;;;;;;16.86;47.15;99312.19;4260805;33;33056;-83
2023/05/10 07:13:25;;;;;;;7.78;4.82;;;;;;;17.24;46.31;99318.75;4270606;33;34080;-85
2023/05/10 07:16:22;;;;;;;8.25;5.37;;;;;;;16.81;47.04;99313.97;4258996;33;34073;-84
2023/05/10 07:19:41;;;;;;;10.18;5.07;;;;;;;16.96;47.23;99315.56;4260055;33;34137;-85
2023/05/10 07:22:51;;;;;;;;;;;;;;;16.82;46.77;99318.34;4269378;33;33564;-84
2023/05/10 07:26:06;;;;;;;7.87;4.72;;;;;;;16.98;46.79;99305.94;4277740;33;33672;-84
2023/05/10 07:29:07;;;;;;;9.70;5.53;;;;;;;17.04;47.57;99311.09;4280279;33;34182;-84
2023/05/10 07:31:59;;;;;;;10.10;4.78;;;;;;;16.78;46.22;99319.22;4271369;33;35003;-87
2023/05/10 07:35:00;;;;;;;8.60;5.05;;;;;;;17.27;46.95;99303.88;4284330;33;33653;-86
2023/05/10 07:37:43;;;;;;;9.50;5.12;;;;;;;17.08;45.90;99301.44;4283907;33;34053;-86
2023/05/10 07:40:15;;;;;;;9.93;4.87;;;;;;;17.17;46.17;99301.38;4284072;33;34456;-86
2023/05/10 07:42:59;;;;;;;6.57;4.57;;;;;;;17.20;45.93;99306.56;4283825;33;33452;-87
2023/05/10 07:45:59;;;;;;;7.32;4.43;;;;;;;17.28;45.76;99302.09;4272300;33;33643;-87
2023/05/10 07:48:52;;;;;;;8.32;4.60;;;;;;;17.54;44.92;99312.25;4250034;33;33751;-87
2023/05/10 07:51:30;;;;;;;5.40;3.50;;;;;;;17.57;44.53;99303.47;4243446;33;34097;-87
2023/05/10 07:54:14;;;;;;;;;;;;;;;;;;;;;
2023/05/10 07:56:49;;;;;;;7.47;3.72;;;;;;;18.01;43.94;99307.25;4268114;33;33380;-88
2023/05/10 07:59:17;;;;;;;6.65;4.10;;;;;;;18.25;43.54;99301.63;4234175;33;32991;-89
2023/05/10 08:02:04;;;;;;;7.22;4.18;;;;;;;17.03;44.86;99315.47;4216948;33;33824;-85
2023/05/10 08:04:53;;;;;;;10.43;3.62;;;;;;;17.52;44.83;99309.63;4240179;33;34339;-85
2023/05/10 08:07:39;;;;;;;6.20;3.90;;;;;;;17.07;45.07;99307.59;4238275;33;33562;-87
2023/05/10 08:10:16;;;;;;;8.25;4.82;;;;;;;16.89;45.19;99311.25;4237853;33;34976;-83
2023/05/10 08:13:03;;;;;;;8.18;4.18;;;;;;;16.70;46.31;99305.31;4265917;33;33964;-87
2023/05/10 08:15:51;;;;;;;6.10;3.62;;;;;;;17.08;46.21;99301.44;4281473;33;33588;-84
2023/05/10 08:18:59;;;;;;;6.35;3.45;;;;;;;17.35;46.41;99308.13;4271982;33;33166;-88
2023/05/10 08:21:48;;;;;;;5.70;3.45;;;;;;;17.61;44.25;99307.78;4270398;33;34170;-85
2023/05/10 08:24:30;;;;;;;7.20;3.72;;;;;;;17.45;44.83;99313.22;4280847;33;33862;-89
2023/05/10 08:27:01;;;;;;;6.43;3.70;;;;;;;17.70;44.29;99311.16;4257798;33;33939;-87
2023/05/10 08:29:40;;;;;;;7.60;3.62;;;;;;;17.31;44.66;99304.66;4258257;33;33404;-88
2023/05/10 08:32:56;;;;;;;6.57;3.70;;;;;;;17.80;43.73;99306.66;4255389;33;34169;-84
2023/05/10 08:35:45;;;;;;;8.05;3.90;;;;;;;17.44;43.42;99310.62;4271800;33;34076;-86
2023/05/10 08:38:24;;;;;;;10.25;3.50;;;;;;;17.10;45.33;99302.31;4280675;33;33832;-85
2023/05/10 08:41:10;;;;;;;5.30;3.12;;;;;;;17.69;44.41;99309.44;4280855;33;33159;-86
2023/05/10 08:44:01;;;;;;;4.78;3.20;;;;;;;17.33;43.29;99302.03;4270808;33;33571;-84
2023/05/10 08:46:32;;;;;;;;;;;;;;;17.46;44.18;99299.25;4285239;33;34231;-84
2023/05/10 08:49:48;;;;;;;6.55;2.95;;;;;;;17.41;44.14;99306.28;4260739;33;33909;-87
2023/05/10 08:52:27;;;;;;;7.00;3.72;;;;;;;17.93;42.46;99302.13;4257913;33;33243;-84
2023/05/10 08:54:57;;;;;;;10.43;3.35;;;;;;;18.55;41.60;99294.13;4255258;33;34465;-84
2023/05/10 08:57:27;;;;;;;6.87;3.40;;;;;;;18.40;41.82;99293.47;4267653;33;34059;-86
2023/05/10 09:00:02;;;;;;;11.30;3.97;;;;;;;18.86;40.86;99289.19;4257540;33;34381;-89
2023/05/10 09:02:48;;;;;;;10.27;3.87;;;;;;;17.98;41.58;99288.03;4257185;33;33464;-86
2023/05/10 09:10:04;;;;;;;5.85;3.03;;;;;;;18.16;41.76;99296.53;4241162;33;35544;-83
2023/05/10 09:12:39;;;;;;;6.78;3.28;;;;;;;18.15;42.02;99297.44;4269242;33;33976;-83
2023/05/10 09:15:28;;;;;;;6.18;3.08;;;;;;;17.82;42.54;99291.78;4280241;33;33423;-84
2023/05/10 09:18:07;;;;;;;7.43;3.37;;;;;;;18.51;41.64;99288.06;4292546;33;33559;-85
2023/05/10 09:20:47;;;;;;;5.70;3.37;;;;;;;18.58;40.75;99288.81;4276678;33;34142;-85
2023/05/10 09:23:23;;;;;;;8.43;3.10;;;;;;;18.99;40.38;99292.47;4266528;33;33744;-84
2023/05/10 09:26:08;;;;;;;4.75;2.87;;;;;;;19.32;39.71;99288.28;4255378;33;33140;-85
2023/05/10 09:29:00;;;;;;;6.35;3.20;;;;;;;18.65;39.55;99279.94;4269766;33;33416;-85
2023/05/10 09:32:00;;;;;;;6.45;3.15;;;;;;;19.24;39.87;99295.47;4266748;33;34260;-86
2023/05/10 09:34:42;;;;;;;5.03;3.05;;;;;;;18.66;41.57;99276.41;4256966;33;33582;-85
2023/05/10 09:37:34;;;;;;;6.22;3.00;;;;;;;18.50;41.42;99286.34;4268072;33;32656;-90
2023/05/10 09:40:26;;;;;;;5.43;2.85;;;;;;;18.61;40.56;99280.91;4256029;33;33528;-88
2023/05/10 09:43:21;;;;;;;6.30;3.03;;;;;;;18.74;40.44;99285.03;4258079;33;33926;-86
2023/05/10 09:45:58;;;;;;;6.43;2.97;;;;;;;18.39;40.36;99286.50;4266689;33;34078;-86
2023/05/10 09:48:47;;;;;;;4.55;2.60;;;;;;;18.65;40.98;99279.94;4267613;33;34225;-89
2023/05/10 09:51:26;;;;;;;6.28;3.35;;;;;;;18.37;40.35;99290.03;4268207;33;34436;-86
2023/05/10 09:54:16;;;;;;;6.60;3.08;;;;;;;18.20;40.52;99288.56;4268686;33;34008;-90
2023/05/10 09:56:44;;;;;;;6.10;3.28;;;;;;;18.57;41.26;99276.59;4258792;33;33924;-86
2023/05/10 09:59:14;;;;;;;9.38;3.62;;;;;;;19.16;40.58;99279.84;4270334;33;33349;-85
2023/05/10 10:01:50;;;;;;;4.87;3.22;;;;;;;18.75;41.30;99275.41;4270441;33;33640;-84
2023/05/10 10:04:23;;;;;;;7.65;3.65;;;;;;;18.95;40.47;99271.50;4258821;33;33856;-84
2023/05/10 10:07:03;;;;;;;5.60;3.00;;;;;;;19.36;40.12;99268.94;4266789;33;33649;-84
2023/05/10 10:09:43;;;;;;;6.18;2.87;;;;;;;19.40;40.11;99265.34;4270168;33;33773;-84
2023/05/10 10:12:26;;;;;;;9.32;3.83;;;;;;;19.42;39.12;99264.41;4257717;33;33684;-84
2023/05/10 10:15:08;;;;;;;7.40;3.00;;;;;;;19.53;40.05;99263.31;4280914;33;34032;-85
2023/05/10 10:18:05;;;;;;;5.97;2.90;;;;;;;19.26;39.87;99260.38;4268029;33;33117;-89
2023/05/10 10:20:44;;;;;;;6.07;3.20;;;;;;;18.33;40.88;99268.22;4283518;33;34150;-87
2023/05/10 10:23:28;;;;;;;6.37;3.03;;;;;;;18.76;40.84;99259.63;4269958;33;34909;-87
2023/05/10 10:26:04;;;;;;;5.55;3.62;;;;;;;18.37;40.84;99253.28;4282519;33;33919;-89
2023/05/10 10:29:16;;;;;;;5.45;2.72;;;;;;;18.46;40.23;99264.50;4267397;33;33678;-89
2023/05/10 10:32:30;;;;;;;7.22;3.08;;;;;;;18.58;41.34;99257.31;4280255;33;33375;-89
2023/05/10 10:35:28;;;;;;;5.90;2.70;;;;;;;19.01;39.80;99252.13;4262283;33;33952;-89
2023/05/10 10:38:27;;;;;;;4.72;2.95;;;;;;;19.19;39.49;99261.41;4276738;33;34344;-89
2023/05/10 10:41:27;;;;;;;5.70;2.65;;;;;;;18.51;39.70;99247.81;4256452;33;33867;-89
2023/05/10 10:44:29;;;;;;;5.03;2.90;;;;;;;19.05;39.77;99253.78;4258390;33;33743;-91
2023/05/10 10:47:49;;;;;;;5.20;2.95;;;;;;;18.59;39.82;99238.03;4257925;33;34393;-87
2023/05/10 10:50:57;;;;;;;5.62;2.53;;;;;;;19.66;40.34;99243.75;4268600;33;34639;-89
2023/05/10 10:53:54;;;;;;;5.47;2.20;;;;;;;20.09;38.32;99233.09;4253403;33;34164;-88
2023/05/10 10:56:33;;;;;;;4.68;2.10;;;;;;;19.59;37.26;99229.88;4253723;33;33854;-84
2023/05/10 10:59:08;;;;;;;4.75;2.50;;;;;;;19.30;38.52;99241.00;4256172;33;33747;-88
2023/05/10 11:01:52;;;;;;;4.22;2.37;;;;;;;19.15;38.82;99241.34;4256509;33;33873;-87
2023/05/10 11:04:25;;;;;;;4.25;2.12;;;;;;;19.09;38.30;99233.56;4270390;33;34898;-83
2023/05/10 11:07:19;;;;;;;5.22;2.03;;;;;;;19.72;38.15;99217.31;4259469;33;33447;-87
2023/05/10 11:10:07;;;;;;;5.90;1.90;;;;;;;19.17;37.70;99234.31;4281201;33;34789;-83
2023/05/10 11:13:14;;;;;;;6.82;2.20;;;;;;;19.75;37.64;99213.75;4281014;33;34443;-87
2023/05/10 11:15:59;;;;;;;3.08;1.60;;;;;;;19.55;37.64;99211.56;4293646;33;35281;-86
2023/05/10 11:18:32;;;;;;;6.07;2.00;;;;;;;19.71;37.71;99210.34;4269622;33;33496;-88
2023/05/10 11:21:11;;;;;;;5.73;2.13;;;;;;;19.36;38.05;99217.22;4281797;33;34572;-86
2023/05/10 11:23:59;;;;;;;4.70;1.90;;;;;;;19.47;37.45;99211.72;4283437;33;34120;-86
2023/05/10 11:26:49;;;;;;;3.62;1.95;;;;;;;19.22;38.22;99203.53;4275934;33;34408;-85
2023/05/10 11:29:34;;;;;;;4.20;2.00;;;;;;;19.58;38.74;99201.81;4283065;33;33604;-85
2023/05/10 11:32:13;;;;;;;5.22;1.95;;;;;;;19.73;37.48;99195.38;4281601;33;33593;-85
2023/05/10 11:35:01;;;;;;;4.15;2.10;;;;;;;19.71;36.92;99194.56;4250892;33;34248;-86
2023/05/10 11:37:34;;;;;;;5.70;2.17;;;;;;;19.57;37.90;99202.72;4269974;33;33488;-87
2023/05/10 11:40:35;;;;;;;6.00;2.25;;;;;;;19.30;37.87;99201.59;4260175;33;34847;-84
2023/05/10 11:43:11;;;;;;;4.43;2.00;;;;;;;18.97;38.72;99205.78;4257580;33;33715;-85
2023/05/10 11:45:48;;;;;;;4.10;2.22;;;;;;;19.69;38.07;99194.56;4256691;33;34380;-85
2023/05/10 11:48:22;;;;;;;3.92;1.60;;;;;;;19.57;37.58;99204.50;4268284;33;34328;-85
2023/05/10 11:51:02;;;;;;;6.50;2.05;;;;;;;19.15;37.52;99196.66;4262281;33;33543;-84
2023/05/10 11:53:40;;;;;;;3.92;1.92;;;;;;;19.30;37.52;99201.59;4269353;33;35476;-83
2023/05/10 11:56:21;;;;;;;4.32;1.80;;;;;;;18.85;36.84;99209.53;4255747;33;34341;-84
2023/05/10 11:58:58;;;;;;;4.60;1.60;;;;;;;19.07;37.50;99199.47;4259052;33;33614;-84
2023/05/10 12:01:27;;;;;;;5.68;1.73;;;;;;;18.76;37.94;99193.97;4257507;33;33889;-82
2023/05/10 12:04:04;;;;;;;3.72;1.80;;;;;;;19.06;37.82;99189.00;4258172;33;34124;-86
2023/05/10 12:06:40;;;;;;;5.03;1.85;;;;;;;19.02;38.24;99201.31;4272283;33;33917;-85
2023/05/10 12:09:12;;;;;;;3.67;2.00;;;;;;;19.23;37.03;99199.13;4271795;33;34363;-88
2023/05/10 12:11:49;;;;;;;5.00;2.10;;;;;;;19.26;37.08;99189.41;4272030;33;33809;-84
2023/05/10 12:14:22;;;;;;;3.03;1.55;;;;;;;19.41;37.07;99194.31;4271489;33;35550;-87
2023/05/10 12:17:13;;;;;;;6.40;1.85;;;;;;;19.58;36.32;99206.22;4276027;33;33782;-89
2023/05/10 12:20:21;;;;;;;4.62;1.70;;;;;;;19.71;36.76;99196.31;4283103;33;34023;-90
2023/05/10 12:23:21;;;;;;;;;;;;;;;;;;;;;
2023/05/10 12:26:05;;;;;;;6.55;2.08;;;;;;;19.20;37.21;99198.28;4271254;33;34876;-84
2023/05/10 12:28:40;;;;;;;5.47;1.92;;;;;;;19.50;35.95;99187.13;4259603;33;33971;-91
2023/05/10 12:31:32;;;;;;;3.75;1.45;;;;;;;19.14;36.83;99184.44;4272218;33;33667;-84
2023/05/10 12:34:40;;;;;;;4.07;1.70;;;;;;;19.16;37.36;99182.62;4271290;33;33637;-87
2023/05/10 12:37:27;;;;;;;8.63;2.20;;;;;;;19.60;36.99;99168.47;4258728;33;33563;-89
2023/05/10 12:40:08;;;;;;;4.10;1.60;;;;;;;19.74;36.33;99170.81;4259322;33;33778;-84
2023/05/10 12:42:57;;;;;;;5.07;1.95;;;;;;;19.53;37.14;99180.03;4259190;33;34356;-87
2023/05/10 12:46:42;;;;;;;4.68;1.92;;;;;;;19.69;37.85;99170.91;4267415;33;33832;-88
2023/05/10 12:49:47;;;;;;;6.20;2.60;;;;;;;19.61;37.11;99159.66;4277232;33;34973;-87
2023/05/10 12:52:44;;;;;;;10.70;4.00;;;;;;;18.97;37.65;99171.63;4278875;33;35056;-84
2023/05/10 12:55:35;;;;;;;7.60;2.25;;;;;;;19.09;37.10;99149.47;4278704;33;33827;-87
2023/05/10 12:58:31;;;;;;;5.07;2.37;;;;;;;18.81;37.13;99159.72;4285559;33;32685;-86
2023/05/10 13:02:14;;;;;;;6.60;2.30;;;;;;;18.52;37.62;99163.75;4286477;33;34514;-88
2023/05/10 13:05:55;;;;;;;4.85;1.73;;;;;;;18.69;38.37;99145.06;4273307;33;34689;-87
2023/05/10 13:08:36;;;;;;;6.15;1.70;;;;;;;18.92;37.32;99157.75;4266306;33;34297;-88
2023/05/10 13:12:14;;;;;;;5.30;1.70;;;;;;;19.40;37.41;99140.03;4244966;33;34381;-89
2023/05/10 13:19:31;;;;;;;8.32;1.60;;;;;;;19.43;36.61;99126.81;4252756;33;33604;-86
2023/05/10 13:23:03;;;;;;;4.60;1.80;;;;;;;19.61;36.51;99135.13;4251669;33;33531;-85
2023/05/10 13:26:29;;;;;;;4.80;1.67;;;;;;;19.49;36.98;99132.81;4258635;33;33841;-88
2023/05/10 13:29:34;;;;;;;;;;;;;;;;;;;;;
2023/05/10 13:32:52;;;;;;;5.97;2.10;;;;;;;19.43;35.95;99124.19;4256094;33;33843;-87
2023/05/10 13:35:58;;;;;;;3.55;1.60;;;;;;;20.10;33.48;99110.25;4258905;33;35120;-90
2023/05/10 13:38:53;;;;;;;4.82;1.70;;;;;;;20.55;33.20;99107.28;4223287;33;34442;-87
2023/05/10 13:41:36;;;;;;;3.03;1.50;;;;;;;20.51;35.00;99106.50;4217214;33;33501;-84
2023/05/10 13:45:04;;;;;;;2.42;1.50;;;;;;;20.60;33.66;99100.09;4227263;33;33680;-87
2023/05/10 13:50:59;;;;;;;4.95;1.45;;;;;;;20.11;34.72;99101.44;4216350;33;32825;-88
2023/05/10 13:54:34;;;;;;;4.57;1.55;;;;;;;20.87;33.35;99101.94;4231889;33;34915;-85
2023/05/10 13:57:59;;;;;;;5.07;1.65;;;;;;;20.62;32.46;99100.94;4215843;33;33534;-85